createdAt,value
2018-04-06T00:00:25.436Z,976.22
2018-04-06T00:01:26.108Z,976.17
2018-04-06T00:02:26.773Z,976.17
2018-04-06T00:03:27.444Z,976.17
2018-04-06T00:04:28.124Z,976.10
2018-04-06T00:05:28.777Z,976.11
2018-04-06T00:06:29.457Z,976.08
2018-04-06T00:07:30.121Z,976.02
2018-04-06T00:08:30.787Z,976.05
2018-04-06T00:09:31.458Z,976.09
2018-04-06T00:10:32.121Z,976.13
2018-04-06T00:11:32.786Z,976.14
2018-04-06T00:12:33.451Z,976.15
2018-04-06T00:13:34.125Z,976.19
2018-04-06T00:14:34.790Z,976.21
2018-04-06T00:15:35.459Z,976.20
2018-04-06T00:16:36.127Z,976.19
2018-04-06T00:17:36.794Z,976.19
2018-04-06T00:18:37.459Z,976.13
2018-04-06T00:19:38.127Z,976.15
2018-04-06T00:20:38.792Z,976.15
2018-04-06T00:21:39.466Z,976.13
2018-04-06T00:22:40.133Z,976.07
2018-04-06T00:23:40.808Z,976.10
2018-04-06T00:24:41.477Z,976.04
2018-04-06T00:25:42.148Z,976.05
2018-04-06T00:26:42.815Z,976.09
2018-04-06T00:27:43.481Z,976.12
2018-04-06T00:28:44.153Z,976.11
2018-04-06T00:29:44.819Z,976.14
2018-04-06T00:30:45.483Z,976.13
2018-04-06T00:31:46.161Z,976.10
2018-04-06T00:32:46.827Z,976.11
2018-04-06T00:33:47.494Z,976.09
2018-04-06T00:34:48.167Z,976.07
2018-04-06T00:35:48.832Z,976.12
2018-04-06T00:36:49.496Z,976.07
2018-04-06T00:37:50.164Z,976.12
2018-04-06T00:38:50.833Z,976.13
2018-04-06T00:39:51.498Z,976.16
2018-04-06T00:40:52.169Z,976.15
2018-04-06T00:42:53.492Z,976.22
2018-04-06T00:43:54.163Z,976.22
2018-04-06T00:44:54.829Z,976.27
2018-04-06T00:45:55.496Z,976.26
2018-04-06T00:46:56.157Z,976.24
2018-04-06T00:47:56.825Z,976.20
2018-04-06T00:48:57.495Z,976.23
2018-04-06T00:49:58.165Z,976.24
2018-04-06T00:50:58.836Z,976.29
2018-04-06T00:51:59.498Z,976.29
2018-04-06T00:53:00.165Z,976.30
2018-04-06T00:54:00.832Z,976.30
2018-04-06T00:55:01.503Z,976.23
2018-04-06T00:56:02.175Z,976.28
2018-04-06T00:57:02.838Z,976.32
2018-04-06T00:58:03.503Z,976.33
2018-04-06T00:59:04.171Z,976.33
2018-04-06T01:00:04.854Z,976.36
2018-04-06T01:01:05.500Z,976.35
2018-04-06T01:02:06.167Z,976.38
2018-04-06T01:03:06.829Z,976.36
2018-04-06T01:04:07.492Z,976.35
2018-04-06T01:05:08.164Z,976.36
2018-04-06T01:06:08.826Z,976.37
2018-04-06T01:07:09.489Z,976.37
2018-04-06T01:08:10.158Z,976.38
2018-04-06T01:09:10.824Z,976.37
2018-04-06T01:10:11.496Z,976.38
2018-04-06T01:11:12.164Z,976.40
2018-04-06T01:12:12.825Z,976.40
2018-04-06T01:13:13.489Z,976.42
2018-04-06T01:14:14.159Z,976.46
2018-04-06T01:15:14.825Z,976.45
2018-04-06T01:16:15.490Z,976.47
2018-04-06T01:17:16.157Z,976.50
2018-04-06T01:18:16.823Z,976.50
2018-04-06T01:19:17.490Z,976.53
2018-04-06T01:20:18.155Z,976.54
2018-04-06T01:21:18.829Z,976.55
2018-04-06T01:22:19.504Z,976.59
2018-04-06T01:23:20.173Z,976.53
2018-04-06T01:24:20.840Z,976.52
2018-04-06T01:25:21.504Z,976.50
2018-04-06T01:26:22.167Z,976.51
2018-04-06T01:27:22.841Z,976.50
2018-04-06T01:28:23.504Z,976.52
2018-04-06T01:29:24.174Z,976.55
2018-04-06T01:30:24.844Z,976.55
2018-04-06T01:31:25.516Z,976.56
2018-04-06T01:32:26.181Z,976.61
2018-04-06T01:33:26.849Z,976.62
2018-04-06T01:34:27.513Z,976.62
2018-04-06T01:35:28.182Z,976.59
2018-04-06T01:36:28.851Z,976.59
2018-04-06T01:37:29.526Z,976.54
2018-04-06T01:38:30.197Z,976.50
2018-04-06T01:39:30.865Z,976.45
2018-04-06T01:40:31.530Z,976.50
2018-04-06T01:41:32.202Z,976.47
2018-04-06T01:42:32.870Z,976.50
2018-04-06T01:43:33.544Z,976.56
2018-04-06T01:44:34.208Z,976.61
2018-04-06T01:45:34.877Z,976.62
2018-04-06T01:46:35.546Z,976.61
2018-04-06T01:47:36.214Z,976.63
2018-04-06T01:48:36.886Z,976.61
2018-04-06T01:49:37.546Z,976.57
2018-04-06T01:50:38.254Z,976.57
2018-04-06T01:51:39.015Z,976.55
2018-04-06T01:52:39.683Z,976.58
2018-04-06T01:53:40.355Z,976.63
2018-04-06T01:54:41.023Z,976.61
2018-04-06T01:55:41.686Z,976.60
2018-04-06T01:56:42.349Z,976.66
2018-04-06T01:57:43.023Z,976.60
2018-04-06T01:58:43.694Z,976.61
2018-04-06T01:59:44.357Z,976.58
2018-04-06T02:00:45.024Z,976.60
2018-04-06T02:01:45.691Z,976.55
2018-04-06T02:02:46.357Z,976.53
2018-04-06T02:03:47.025Z,976.50
2018-04-06T02:04:47.691Z,976.52
2018-04-06T02:05:48.362Z,976.50
2018-04-06T02:06:49.023Z,976.55
2018-04-06T02:07:49.690Z,976.56
2018-04-06T02:08:50.360Z,976.55
2018-04-06T02:09:51.021Z,976.55
2018-04-06T02:10:51.690Z,976.54
2018-04-06T02:11:52.364Z,976.54
2018-04-06T02:12:53.032Z,976.48
2018-04-06T02:13:53.698Z,976.50
2018-04-06T02:14:54.365Z,976.50
2018-04-06T02:15:55.031Z,976.50
2018-04-06T02:16:55.699Z,976.51
2018-04-06T02:17:56.365Z,976.58
2018-04-06T02:18:57.038Z,976.54
2018-04-06T02:19:57.711Z,976.48
2018-04-06T02:20:58.382Z,976.49
2018-04-06T02:21:59.041Z,976.51
2018-04-06T02:22:59.710Z,976.52
2018-04-06T02:24:00.383Z,976.50
2018-04-06T02:25:01.047Z,976.50
2018-04-06T02:26:01.716Z,976.49
2018-04-06T02:27:02.388Z,976.54
2018-04-06T02:28:03.057Z,976.49
2018-04-06T02:29:03.725Z,976.50
2018-04-06T02:30:04.396Z,976.52
2018-04-06T02:31:05.059Z,976.53
2018-04-06T02:32:05.725Z,976.52
2018-04-06T02:33:06.387Z,976.51
2018-04-06T02:34:07.061Z,976.46
2018-04-06T02:35:07.726Z,976.49
2018-04-06T02:36:08.394Z,976.52
2018-04-06T02:37:09.053Z,976.48
2018-04-06T02:38:09.730Z,976.53
2018-04-06T02:39:10.389Z,976.52
2018-04-06T02:40:11.048Z,976.53
2018-04-06T02:41:11.711Z,976.53
2018-04-06T02:42:12.378Z,976.49
2018-04-06T02:43:13.045Z,976.46
2018-04-06T02:44:13.715Z,976.44
2018-04-06T02:45:14.388Z,976.42
2018-04-06T02:46:15.049Z,976.45
2018-04-06T02:47:15.713Z,976.50
2018-04-06T02:48:16.379Z,976.47
2018-04-06T02:49:17.046Z,976.51
2018-04-06T02:50:17.706Z,976.55
2018-04-06T02:51:18.379Z,976.50
2018-04-06T02:52:19.039Z,976.51
2018-04-06T02:53:19.702Z,976.50
2018-04-06T02:54:20.369Z,976.50
2018-04-06T02:55:21.032Z,976.50
2018-04-06T02:56:21.695Z,976.46
2018-04-06T02:57:22.360Z,976.48
2018-04-06T02:58:23.028Z,976.54
2018-04-06T02:59:23.695Z,976.51
2018-04-06T03:00:24.367Z,976.50
2018-04-06T03:01:25.036Z,976.54
2018-04-06T03:02:25.699Z,976.49
2018-04-06T03:03:26.365Z,976.46
2018-04-06T03:04:27.035Z,976.46
2018-04-06T03:05:27.694Z,976.44
2018-04-06T03:06:28.358Z,976.44
2018-04-06T03:07:29.026Z,976.53
2018-04-06T03:08:29.691Z,976.49
2018-04-06T03:09:30.358Z,976.50
2018-04-06T03:10:31.026Z,976.52
2018-04-06T03:11:31.691Z,976.47
2018-04-06T03:12:32.354Z,976.47
2018-04-06T03:13:33.016Z,976.48
2018-04-06T03:14:33.682Z,976.46
2018-04-06T03:15:34.346Z,976.49
2018-04-06T03:16:35.012Z,976.50
2018-04-06T03:17:35.676Z,976.50
2018-04-06T03:18:36.338Z,976.52
2018-04-06T03:19:37.011Z,976.49
2018-04-06T03:20:37.677Z,976.46
2018-04-06T03:21:38.343Z,976.52
2018-04-06T03:22:39.005Z,976.49
2018-04-06T03:23:39.668Z,976.50
2018-04-06T03:24:40.329Z,976.50
2018-04-06T03:25:40.992Z,976.48
2018-04-06T03:26:41.657Z,976.52
2018-04-06T03:27:42.323Z,976.46
2018-04-06T03:28:42.985Z,976.49
2018-04-06T03:29:43.653Z,976.45
2018-04-06T03:30:44.320Z,976.46
2018-04-06T03:31:44.984Z,976.40
2018-04-06T03:32:45.647Z,976.44
2018-04-06T03:33:46.349Z,976.45
2018-04-06T03:34:47.019Z,976.47
2018-04-06T03:35:47.682Z,976.50
2018-04-06T03:36:48.345Z,976.52
2018-04-06T03:37:49.013Z,976.52
2018-04-06T03:38:49.703Z,976.48
2018-04-06T03:39:50.347Z,976.49
2018-04-06T03:40:51.019Z,976.49
2018-04-06T03:41:51.684Z,976.48
2018-04-06T03:42:52.359Z,976.48
2018-04-06T03:43:53.025Z,976.48
2018-04-06T03:44:53.688Z,976.51
2018-04-06T03:45:54.350Z,976.56
2018-04-06T03:46:55.016Z,976.54
2018-04-06T03:47:55.690Z,976.55
2018-04-06T03:48:56.357Z,976.52
2018-04-06T03:49:57.025Z,976.48
2018-04-06T03:50:57.689Z,976.50
2018-04-06T03:51:58.351Z,976.48
2018-04-06T03:52:59.013Z,976.51
2018-04-06T03:53:59.677Z,976.51
2018-04-06T03:55:00.342Z,976.55
2018-04-06T03:56:01.001Z,976.50
2018-04-06T03:57:01.669Z,976.52
2018-04-06T03:58:02.331Z,976.51
2018-04-06T03:59:02.998Z,976.50
2018-04-06T04:00:03.660Z,976.43
2018-04-06T04:01:04.322Z,976.50
2018-04-06T04:02:04.994Z,976.42
2018-04-06T04:03:05.656Z,976.43
2018-04-06T04:04:06.317Z,976.39
2018-04-06T04:05:06.996Z,976.36
2018-04-06T04:06:07.650Z,976.32
2018-04-06T04:07:08.320Z,976.33
2018-04-06T04:08:08.991Z,976.34
2018-04-06T04:09:09.653Z,976.33
2018-04-06T04:10:10.315Z,976.42
2018-04-06T04:11:10.978Z,976.40
2018-04-06T04:12:11.643Z,976.39
2018-04-06T04:13:12.305Z,976.34
2018-04-06T04:14:12.974Z,976.32
2018-04-06T04:15:13.636Z,976.30
2018-04-06T04:16:14.301Z,976.28
2018-04-06T04:17:14.964Z,976.25
2018-04-06T04:18:15.630Z,976.32
2018-04-06T04:19:16.294Z,976.33
2018-04-06T04:20:16.962Z,976.32
2018-04-06T04:21:17.621Z,976.38
2018-04-06T04:22:18.281Z,976.38
2018-04-06T04:23:18.946Z,976.39
2018-04-06T04:24:19.612Z,976.34
2018-04-06T04:25:20.275Z,976.37
2018-04-06T04:26:20.940Z,976.35
2018-04-06T04:27:21.606Z,976.33
2018-04-06T04:28:22.270Z,976.36
2018-04-06T04:29:22.937Z,976.39
2018-04-06T04:30:23.599Z,976.37
2018-04-06T04:31:24.266Z,976.35
2018-04-06T04:32:24.925Z,976.37
2018-04-06T04:33:25.590Z,976.38
2018-04-06T04:34:26.281Z,976.38
2018-04-06T04:35:26.919Z,976.36
2018-04-06T04:36:27.586Z,976.35
2018-04-06T04:37:28.249Z,976.38
2018-04-06T04:38:28.918Z,976.34
2018-04-06T04:39:29.587Z,976.34
2018-04-06T04:40:30.247Z,976.34
2018-04-06T04:41:30.914Z,976.34
2018-04-06T04:42:31.574Z,976.33
2018-04-06T04:43:32.237Z,976.35
2018-04-06T04:44:32.900Z,976.38
2018-04-06T04:45:33.565Z,976.40
2018-04-06T04:46:34.235Z,976.45
2018-04-06T04:47:34.898Z,976.43
2018-04-06T04:48:35.561Z,976.41
2018-04-06T04:49:36.225Z,976.39
2018-04-06T04:50:36.887Z,976.39
2018-04-06T04:51:37.556Z,976.38
2018-04-06T04:52:38.223Z,976.40
2018-04-06T04:53:38.890Z,976.37
2018-04-06T04:54:39.556Z,976.42
2018-04-06T04:55:40.228Z,976.41
2018-04-06T04:56:40.891Z,976.41
2018-04-06T04:57:41.556Z,976.39
2018-04-06T04:58:42.222Z,976.41
2018-04-06T04:59:42.891Z,976.39
2018-04-06T05:00:43.559Z,976.46
2018-04-06T05:01:44.235Z,976.42
2018-04-06T05:02:44.904Z,976.43
2018-04-06T05:03:45.576Z,976.46
2018-04-06T05:04:46.240Z,976.45
2018-04-06T05:05:46.908Z,976.49
2018-04-06T05:06:47.573Z,976.41
2018-04-06T05:07:48.235Z,976.43
2018-04-06T05:08:48.910Z,976.42
2018-04-06T05:09:49.580Z,976.43
2018-04-06T05:10:50.246Z,976.45
2018-04-06T05:11:50.915Z,976.44
2018-04-06T05:12:51.580Z,976.44
2018-04-06T05:13:52.249Z,976.45
2018-04-06T05:14:52.915Z,976.45
2018-04-06T05:15:53.593Z,976.47
2018-04-06T05:16:54.259Z,976.45
2018-04-06T05:17:54.924Z,976.44
2018-04-06T05:18:55.588Z,976.45
2018-04-06T05:19:56.257Z,976.47
2018-04-06T05:20:56.923Z,976.38
2018-04-06T05:21:57.592Z,976.42
2018-04-06T05:22:58.260Z,976.42
2018-04-06T05:23:58.925Z,976.46
2018-04-06T05:24:59.591Z,976.44
2018-04-06T05:26:00.258Z,976.42
2018-04-06T05:27:00.927Z,976.48
2018-04-06T05:28:01.597Z,976.45
2018-04-06T05:29:02.265Z,976.48
2018-04-06T05:30:02.931Z,976.51
2018-04-06T05:31:03.602Z,976.49
2018-04-06T05:32:04.266Z,976.53
2018-04-06T05:33:04.934Z,976.56
2018-04-06T05:34:05.600Z,976.50
2018-04-06T05:35:06.270Z,976.52
2018-04-06T05:36:06.942Z,976.52
2018-04-06T05:37:07.628Z,976.56
2018-04-06T05:38:08.295Z,976.56
2018-04-06T05:39:08.960Z,976.57
2018-04-06T05:40:09.626Z,976.54
2018-04-06T05:41:10.293Z,976.62
2018-04-06T05:42:10.961Z,976.61
2018-04-06T05:43:11.629Z,976.57
2018-04-06T05:44:12.295Z,976.61
2018-04-06T05:45:12.973Z,976.63
2018-04-06T05:46:13.639Z,976.62
2018-04-06T05:47:14.314Z,976.62
2018-04-06T05:48:14.984Z,976.63
2018-04-06T05:49:15.651Z,976.59
2018-04-06T05:50:16.319Z,976.57
2018-04-06T05:51:16.992Z,976.61
2018-04-06T05:52:17.661Z,976.57
2018-04-06T05:53:18.328Z,976.64
2018-04-06T05:54:18.996Z,976.60
2018-04-06T05:55:19.663Z,976.63
2018-04-06T05:56:20.329Z,976.69
2018-04-06T05:57:20.995Z,976.67
2018-04-06T05:58:21.693Z,976.69
2018-04-06T05:59:22.406Z,976.68
2018-04-06T06:00:23.086Z,976.63
2018-04-06T06:01:23.753Z,976.66
2018-04-06T06:02:24.434Z,976.65
2018-04-06T06:03:25.102Z,976.67
2018-04-06T06:04:25.766Z,976.66
2018-04-06T06:05:26.445Z,976.69
2018-04-06T06:06:27.107Z,976.70
2018-04-06T06:07:27.777Z,976.70
2018-04-06T06:08:28.446Z,976.71
2018-04-06T06:09:29.113Z,976.72
2018-04-06T06:10:29.780Z,976.70
2018-04-06T06:11:30.448Z,976.76
2018-04-06T06:12:31.115Z,976.73
2018-04-06T06:13:31.784Z,976.75
2018-04-06T06:14:32.460Z,976.75
2018-04-06T06:15:33.151Z,976.73
2018-04-06T06:16:33.794Z,976.70
2018-04-06T06:17:34.462Z,976.66
2018-04-06T06:18:35.130Z,976.71
2018-04-06T06:19:35.799Z,976.73
2018-04-06T06:20:36.467Z,976.73
2018-04-06T06:21:37.131Z,976.72
2018-04-06T06:22:37.797Z,976.73
2018-04-06T06:23:38.466Z,976.71
2018-04-06T06:24:39.133Z,976.72
2018-04-06T06:25:39.807Z,976.75
2018-04-06T06:26:40.477Z,976.71
2018-04-06T06:27:41.153Z,976.74
2018-04-06T06:28:41.841Z,976.71
2018-04-06T06:29:42.501Z,976.71
2018-04-06T06:30:43.174Z,976.72
2018-04-06T06:31:43.847Z,976.70
2018-04-06T06:32:44.520Z,976.72
2018-04-06T06:33:45.192Z,976.73
2018-04-06T06:34:45.863Z,976.68
2018-04-06T06:35:46.534Z,976.74
2018-04-06T06:36:47.240Z,976.69
2018-04-06T06:37:47.880Z,976.70
2018-04-06T06:38:48.557Z,976.69
2018-04-06T06:39:49.225Z,976.72
2018-04-06T06:40:49.904Z,976.72
2018-04-06T06:41:50.578Z,976.69
2018-04-06T06:42:51.289Z,976.68
2018-04-06T06:43:51.915Z,976.68
2018-04-06T06:44:52.583Z,976.73
2018-04-06T06:45:53.253Z,976.66
2018-04-06T06:46:53.924Z,976.72
2018-04-06T06:47:54.593Z,976.68
2018-04-06T06:48:55.258Z,976.70
2018-04-06T06:49:55.931Z,976.71
2018-04-06T06:50:56.600Z,976.67
2018-04-06T06:51:57.269Z,976.68
2018-04-06T06:52:57.936Z,976.67
2018-04-06T06:53:58.602Z,976.67
2018-04-06T06:54:59.283Z,976.68
2018-04-06T06:55:59.954Z,976.65
2018-04-06T06:57:00.621Z,976.69
2018-04-06T06:58:01.228Z,976.65
2018-04-06T06:59:01.973Z,976.65
2018-04-06T07:00:02.640Z,976.65
2018-04-06T07:01:03.308Z,976.60
2018-04-06T07:02:03.979Z,976.61
2018-04-06T07:03:04.648Z,976.66
2018-04-06T07:04:05.328Z,976.66
2018-04-06T07:05:05.996Z,976.68
2018-04-06T07:06:06.665Z,976.69
2018-04-06T07:07:07.335Z,976.64
2018-04-06T07:08:08.006Z,976.63
2018-04-06T07:09:08.677Z,976.63
2018-04-06T07:10:09.350Z,976.63
2018-04-06T07:11:10.025Z,976.64
2018-04-06T07:12:10.694Z,976.64
2018-04-06T07:13:11.374Z,976.60
2018-04-06T07:14:12.041Z,976.62
2018-04-06T07:15:12.720Z,976.66
2018-04-06T07:16:13.390Z,976.69
2018-04-06T07:17:14.064Z,976.69
2018-04-06T07:18:14.745Z,976.69
2018-04-06T07:19:15.416Z,976.69
2018-04-06T07:20:16.089Z,976.66
2018-04-06T07:21:16.764Z,976.70
2018-04-06T07:22:17.433Z,976.68
2018-04-06T07:23:18.108Z,976.66
2018-04-06T07:24:18.777Z,976.62
2018-04-06T07:25:19.449Z,976.64
2018-04-06T07:26:20.125Z,976.64
2018-04-06T07:27:20.795Z,976.60
2018-04-06T07:28:21.469Z,976.63
2018-04-06T07:29:22.148Z,976.61
2018-04-06T07:30:22.820Z,976.61
2018-04-06T07:31:23.492Z,976.54
2018-04-06T07:32:24.180Z,976.51
2018-04-06T07:33:24.830Z,976.54
2018-04-06T07:34:25.503Z,976.50
2018-04-06T07:35:26.175Z,976.51
2018-04-06T07:36:26.854Z,976.51
2018-04-06T07:37:27.524Z,976.50
2018-04-06T07:38:28.203Z,976.47
2018-04-06T07:39:28.877Z,976.45
2018-04-06T07:40:29.547Z,976.48
2018-04-06T07:41:30.223Z,976.53
2018-04-06T07:42:30.892Z,976.47
2018-04-06T07:43:31.559Z,976.52
2018-04-06T07:44:32.229Z,976.47
2018-04-06T07:45:32.904Z,976.49
2018-04-06T07:46:33.572Z,976.46
2018-04-06T07:47:34.241Z,976.45
2018-04-06T07:48:34.913Z,976.43
2018-04-06T07:49:35.616Z,976.41
2018-04-06T07:50:36.256Z,976.43
2018-04-06T07:51:36.926Z,976.41
2018-04-06T07:52:37.602Z,976.40
2018-04-06T07:53:38.288Z,976.42
2018-04-06T07:54:38.965Z,976.41
2018-04-06T07:55:39.632Z,976.42
2018-04-06T07:56:40.303Z,976.39
2018-04-06T07:57:40.982Z,976.43
2018-04-06T07:58:41.645Z,976.43
2018-04-06T07:59:42.313Z,976.42
2018-04-06T08:00:42.990Z,976.40
2018-04-06T08:01:43.661Z,976.38
2018-04-06T08:02:44.335Z,976.39
2018-04-06T08:03:45.010Z,976.38
2018-04-06T08:04:45.674Z,976.39
2018-04-06T08:05:46.347Z,976.40
2018-04-06T08:06:47.017Z,976.36
2018-04-06T08:07:47.690Z,976.43
2018-04-06T08:08:48.359Z,976.44
2018-04-06T08:09:49.047Z,976.42
2018-04-06T08:10:49.704Z,976.41
2018-04-06T08:11:50.378Z,976.39
2018-04-06T08:12:51.050Z,976.39
2018-04-06T08:13:51.723Z,976.41
2018-04-06T08:14:52.392Z,976.42
2018-04-06T08:15:53.065Z,976.42
2018-04-06T08:16:53.737Z,976.42
2018-04-06T08:17:54.407Z,976.40
2018-04-06T08:18:55.089Z,976.38
2018-04-06T08:19:55.763Z,976.36
2018-04-06T08:20:56.430Z,976.36
2018-04-06T08:21:57.116Z,976.39
2018-04-06T08:22:57.793Z,976.35
2018-04-06T08:23:58.470Z,976.34
2018-04-06T08:24:59.142Z,976.39
2018-04-06T08:25:59.814Z,976.38
2018-04-06T08:27:00.492Z,976.37
2018-04-06T08:28:01.173Z,976.38
2018-04-06T08:29:01.840Z,976.36
2018-04-06T08:30:02.521Z,976.38
2018-04-06T08:31:03.195Z,976.40
2018-04-06T08:32:03.866Z,976.36
2018-04-06T08:33:04.540Z,976.39
2018-04-06T08:34:05.213Z,976.40
2018-04-06T08:35:05.885Z,976.37
2018-04-06T08:36:06.564Z,976.33
2018-04-06T08:37:07.235Z,976.36
2018-04-06T08:38:07.912Z,976.36
2018-04-06T08:39:08.590Z,976.35
2018-04-06T08:40:09.253Z,976.40
2018-04-06T08:41:09.926Z,976.31
2018-04-06T08:42:10.610Z,976.33
2018-04-06T08:43:11.282Z,976.35
2018-04-06T08:44:11.950Z,976.37
2018-04-06T08:45:12.624Z,976.38
2018-04-06T08:46:13.300Z,976.34
2018-04-06T08:47:13.976Z,976.35
2018-04-06T08:48:14.648Z,976.33
2018-04-06T08:49:15.318Z,976.30
2018-04-06T08:50:15.990Z,976.26
2018-04-06T08:51:16.662Z,976.34
2018-04-06T08:52:17.333Z,976.32
2018-04-06T08:53:18.006Z,976.31
2018-04-06T08:54:18.665Z,976.32
2018-04-06T08:55:19.350Z,976.34
2018-04-06T08:56:20.020Z,976.33
2018-04-06T08:57:20.693Z,976.33
2018-04-06T08:58:21.366Z,976.34
2018-04-06T08:59:22.036Z,976.32
2018-04-06T09:00:22.707Z,976.35
2018-04-06T09:01:23.387Z,976.29
2018-04-06T09:02:24.067Z,976.27
2018-04-06T09:03:24.745Z,976.26
2018-04-06T09:04:25.442Z,976.26
2018-04-06T09:05:26.102Z,976.26
2018-04-06T09:06:26.775Z,976.23
2018-04-06T09:07:27.453Z,976.22
2018-04-06T09:08:28.127Z,976.22
2018-04-06T09:09:28.795Z,976.22
2018-04-06T09:10:29.481Z,976.20
2018-04-06T09:11:30.153Z,976.14
2018-04-06T09:12:30.828Z,976.18
2018-04-06T09:13:31.501Z,976.15
2018-04-06T09:14:32.175Z,976.19
2018-04-06T09:15:32.847Z,976.14
2018-04-06T09:16:33.519Z,976.09
2018-04-06T09:17:34.211Z,976.10
2018-04-06T09:18:34.887Z,976.14
2018-04-06T09:19:35.560Z,976.12
2018-04-06T09:20:36.230Z,976.11
2018-04-06T09:21:36.911Z,976.08
2018-04-06T09:22:37.585Z,976.12
2018-04-06T09:23:38.257Z,976.14
2018-04-06T09:24:38.938Z,976.12
2018-04-06T09:25:39.612Z,976.10
2018-04-06T09:26:40.289Z,976.08
2018-04-06T09:27:40.966Z,976.02
2018-04-06T09:28:41.638Z,976.08
2018-04-06T09:29:42.323Z,975.99
2018-04-06T09:30:42.996Z,975.98
2018-04-06T09:31:43.680Z,976.05
2018-04-06T09:32:44.355Z,976.01
2018-04-06T09:33:45.033Z,975.99
2018-04-06T09:34:45.710Z,976.08
2018-04-06T09:35:46.387Z,976.05
2018-04-06T09:36:47.062Z,975.96
2018-04-06T09:37:47.742Z,975.92
2018-04-06T09:38:48.419Z,976.00
2018-04-06T09:39:49.105Z,976.02
2018-04-06T09:40:49.779Z,975.97
2018-04-06T09:41:50.456Z,975.95
2018-04-06T09:42:51.132Z,975.96
2018-04-06T09:43:51.806Z,975.94
2018-04-06T09:44:52.481Z,975.94
2018-04-06T09:45:53.161Z,975.93
2018-04-06T09:46:53.832Z,975.93
2018-04-06T09:47:54.505Z,975.92
2018-04-06T09:48:55.184Z,975.85
2018-04-06T09:49:55.858Z,975.84
2018-04-06T09:50:56.534Z,975.87
2018-04-06T09:51:57.207Z,975.84
2018-04-06T09:52:57.884Z,975.83
2018-04-06T09:53:58.558Z,975.80
2018-04-06T09:54:59.246Z,975.83
2018-04-06T09:55:59.929Z,975.79
2018-04-06T09:57:00.608Z,975.76
2018-04-06T09:58:01.281Z,975.77
2018-04-06T09:59:01.960Z,975.76
2018-04-06T10:00:02.632Z,975.73
2018-04-06T10:01:03.309Z,975.68
2018-04-06T10:02:04.002Z,975.74
2018-04-06T10:03:04.679Z,975.73
2018-04-06T10:04:05.349Z,975.73
2018-04-06T10:05:06.032Z,975.70
2018-04-06T10:06:06.709Z,975.67
2018-04-06T10:07:07.381Z,975.67
2018-04-06T10:08:08.058Z,975.68
2018-04-06T10:09:08.732Z,975.67
2018-04-06T10:10:09.424Z,975.66
2018-04-06T10:11:10.104Z,975.73
2018-04-06T10:12:10.779Z,975.65
2018-04-06T10:13:11.460Z,975.65
2018-04-06T10:14:12.135Z,975.59
2018-04-06T10:15:12.813Z,975.63
2018-04-06T10:16:13.519Z,975.64
2018-04-06T10:17:14.166Z,975.62
2018-04-06T10:18:14.842Z,975.57
2018-04-06T10:19:15.516Z,975.56
2018-04-06T10:20:16.190Z,975.59
2018-04-06T10:21:16.866Z,975.61
2018-04-06T10:22:17.540Z,975.58
2018-04-06T10:23:18.218Z,975.56
2018-04-06T10:24:18.898Z,975.49
2018-04-06T10:25:19.574Z,975.54
2018-04-06T10:26:20.243Z,975.53
2018-04-06T10:27:20.919Z,975.50
2018-04-06T10:28:21.599Z,975.55
2018-04-06T10:29:22.279Z,975.43
2018-04-06T10:30:22.958Z,975.43
2018-04-06T10:31:23.646Z,975.42
2018-04-06T10:32:24.319Z,975.41
2018-04-06T10:33:24.995Z,975.39
2018-04-06T10:34:25.673Z,975.34
2018-04-06T10:35:26.363Z,975.31
2018-04-06T10:36:27.044Z,975.29
2018-04-06T10:37:27.740Z,975.27
2018-04-06T10:38:28.530Z,975.28
2018-04-06T10:39:29.208Z,975.34
2018-04-06T10:40:29.898Z,975.25
2018-04-06T10:41:30.564Z,975.21
2018-04-06T10:42:31.234Z,975.25
2018-04-06T10:43:31.915Z,975.20
2018-04-06T10:44:32.590Z,975.16
2018-04-06T10:45:33.275Z,975.14
2018-04-06T10:46:33.951Z,975.16
2018-04-06T10:47:34.634Z,975.15
2018-04-06T10:48:35.310Z,975.16
2018-04-06T10:49:35.990Z,975.17
2018-04-06T10:50:36.659Z,975.18
2018-04-06T10:51:37.333Z,975.19
2018-04-06T10:52:38.011Z,975.13
2018-04-06T10:53:38.684Z,975.13
2018-04-06T10:54:39.367Z,975.08
2018-04-06T10:55:40.041Z,975.06
2018-04-06T10:56:40.715Z,975.07
2018-04-06T10:57:41.391Z,975.08
2018-04-06T10:58:42.066Z,975.11
2018-04-06T10:59:42.750Z,975.05
2018-04-06T11:00:43.419Z,975.08
2018-04-06T11:01:44.093Z,975.03
2018-04-06T11:02:44.770Z,975.09
2018-04-06T11:03:45.448Z,975.02
2018-04-06T11:04:46.133Z,974.99
2018-04-06T11:05:46.802Z,975.02
2018-04-06T11:06:47.479Z,975.04
2018-04-06T11:07:48.153Z,975.03
2018-04-06T11:08:48.833Z,975.00
2018-04-06T11:09:49.508Z,974.97
2018-04-06T11:10:50.185Z,974.99
2018-04-06T11:11:50.773Z,974.96
2018-04-06T11:12:51.521Z,974.92
2018-04-06T11:13:52.197Z,974.95
2018-04-06T11:14:52.874Z,974.99
2018-04-06T11:15:53.558Z,974.96
2018-04-06T11:16:54.231Z,974.95
2018-04-06T11:17:54.918Z,974.97
2018-04-06T11:18:55.592Z,974.89
2018-04-06T11:19:56.278Z,974.93
2018-04-06T11:20:56.949Z,974.92
2018-04-06T11:21:57.627Z,974.91
2018-04-06T11:22:58.340Z,974.91
2018-04-06T11:23:58.988Z,974.86
2018-04-06T11:24:59.658Z,974.86
2018-04-06T11:26:00.335Z,974.83
2018-04-06T11:27:01.030Z,974.87
2018-04-06T11:28:01.694Z,974.90
2018-04-06T11:29:02.380Z,974.84
2018-04-06T11:30:03.062Z,974.87
2018-04-06T11:31:03.739Z,974.87
2018-04-06T11:32:04.469Z,974.87
2018-04-06T11:33:05.091Z,974.79
2018-04-06T11:34:05.770Z,974.87
2018-04-06T11:35:06.458Z,974.93
2018-04-06T11:36:07.153Z,974.94
2018-04-06T11:37:07.832Z,974.97
2018-04-06T11:38:08.510Z,974.87
2018-04-06T11:39:09.189Z,974.95
2018-04-06T11:40:09.866Z,974.98
2018-04-06T11:41:10.545Z,974.99
2018-04-06T11:42:11.223Z,974.97
2018-04-06T11:43:11.908Z,974.91
2018-04-06T11:44:12.614Z,974.90
2018-04-06T11:45:13.276Z,974.90
2018-04-06T11:46:13.952Z,974.84
2018-04-06T11:47:14.633Z,974.87
2018-04-06T11:48:15.253Z,974.81
2018-04-06T11:49:16.002Z,974.89
2018-04-06T11:50:16.685Z,974.78
2018-04-06T11:51:17.374Z,974.87
2018-04-06T11:52:18.061Z,974.84
2018-04-06T11:53:18.739Z,974.83
2018-04-06T11:54:19.421Z,974.86
2018-04-06T11:55:20.112Z,974.88
2018-04-06T11:56:20.794Z,974.80
2018-04-06T11:57:21.477Z,974.85
2018-04-06T11:58:22.162Z,974.81
2018-04-06T11:59:22.844Z,974.81
2018-04-06T12:00:23.531Z,974.81
2018-04-06T12:01:24.214Z,974.79
2018-04-06T12:02:24.899Z,974.80
2018-04-06T12:03:25.595Z,974.73
2018-04-06T12:04:26.280Z,974.78
2018-04-06T12:05:26.983Z,974.74
2018-04-06T12:06:27.671Z,974.74
2018-04-06T12:07:28.363Z,974.69
2018-04-06T12:08:29.051Z,974.65
2018-04-06T12:09:29.812Z,974.71
2018-04-06T12:10:30.502Z,974.70
2018-04-06T12:11:31.197Z,974.73
2018-04-06T12:12:31.890Z,974.66
2018-04-06T12:13:32.579Z,974.66
2018-04-06T12:14:33.271Z,974.64
2018-04-06T12:15:33.966Z,974.58
2018-04-06T12:16:34.656Z,974.58
2018-04-06T12:17:35.342Z,974.62
2018-04-06T12:18:36.028Z,974.64
2018-04-06T12:19:36.715Z,974.64
2018-04-06T12:20:37.406Z,974.63
2018-04-06T12:21:38.093Z,974.61
2018-04-06T12:22:38.785Z,974.58
2018-04-06T12:23:39.473Z,974.59
2018-04-06T12:24:40.160Z,974.57
2018-04-06T12:25:40.847Z,974.52
2018-04-06T12:26:41.532Z,974.52
2018-04-06T12:27:42.224Z,974.55
2018-04-06T12:28:42.923Z,974.55
2018-04-06T12:29:43.629Z,974.54
2018-04-06T12:30:44.327Z,974.54
2018-04-06T12:31:45.031Z,974.50
2018-04-06T12:32:45.721Z,974.56
2018-04-06T12:33:46.418Z,974.55
2018-04-06T12:34:47.117Z,974.56
2018-04-06T12:35:47.812Z,974.50
2018-04-06T12:36:48.502Z,974.50
2018-04-06T12:37:49.204Z,974.49